createdAt,value
2018-05-27T00:00:14.119Z,1023.32
2018-05-27T00:01:22.981Z,1023.39
2018-05-27T00:02:31.846Z,1023.32
2018-05-27T00:03:40.994Z,1023.33
2018-05-27T00:04:49.853Z,1023.29
2018-05-27T00:05:58.714Z,1023.26
2018-05-27T00:07:07.579Z,1023.27
2018-05-27T00:08:16.717Z,1023.27
2018-05-27T00:09:25.854Z,1023.26
2018-05-27T00:10:34.718Z,1023.25
2018-05-27T00:11:43.581Z,1023.22
2018-05-27T00:12:52.446Z,1023.26
2018-05-27T00:14:01.312Z,1023.25
2018-05-27T00:15:10.450Z,1023.26
2018-05-27T00:16:19.312Z,1023.24
2018-05-27T00:17:28.176Z,1023.28
2018-05-27T00:18:37.320Z,1023.26
2018-05-27T00:19:46.183Z,1023.28
2018-05-27T00:20:55.330Z,1023.28
2018-05-27T00:22:04.195Z,1023.26
2018-05-27T00:23:13.352Z,1023.27
2018-05-27T00:24:22.215Z,1023.28
2018-05-27T00:25:31.087Z,1023.25
2018-05-27T00:26:39.941Z,1023.29
2018-05-27T00:27:48.805Z,1023.22
2018-05-27T00:28:57.668Z,1023.21
2018-05-27T00:30:06.530Z,1023.17
2018-05-27T00:31:15.394Z,1023.09
2018-05-27T00:32:24.259Z,1023.08
2018-05-27T00:33:33.131Z,1023.06
2018-05-27T00:34:42.047Z,1023.06
2018-05-27T00:35:50.915Z,1023.05
2018-05-27T00:36:59.770Z,1023.08
2018-05-27T00:38:08.632Z,1023.12
2018-05-27T00:39:17.500Z,1023.1
2018-05-27T00:40:26.362Z,1023.07
2018-05-27T00:41:35.224Z,1023.11
2018-05-27T00:42:44.088Z,1023.05
2018-05-27T00:43:52.951Z,1023.06
2018-05-27T00:45:01.816Z,1023.04
2018-05-27T00:46:10.953Z,1023.1
2018-05-27T00:47:19.815Z,1023.07
2018-05-27T00:48:28.675Z,1023.11
2018-05-27T00:49:37.540Z,1023.1
2018-05-27T00:50:46.972Z,1023.11
2018-05-27T00:51:56.113Z,1023.12
2018-05-27T00:53:04.975Z,1023.09
2018-05-27T00:54:13.836Z,1023.09
2018-05-27T00:55:22.700Z,1023.08
2018-05-27T00:56:31.847Z,1023.11
2018-05-27T00:57:40.708Z,1023.06
2018-05-27T00:58:49.860Z,1023.09
2018-05-27T00:59:58.726Z,1023.11
2018-05-27T01:01:07.588Z,1023.09
2018-05-27T01:02:16.451Z,1023.07
2018-05-27T01:03:25.318Z,1023.08
2018-05-27T01:04:34.185Z,1023.09
2018-05-27T01:05:43.041Z,1023.08
2018-05-27T01:06:52.183Z,1023.05
2018-05-27T01:08:01.047Z,1023.04
2018-05-27T01:09:09.960Z,1023.01
2018-05-27T01:10:19.101Z,1023.03
2018-05-27T01:11:28.250Z,1023.04
2018-05-27T01:12:37.116Z,1023.01
2018-05-27T01:13:45.980Z,1022.99
2018-05-27T01:14:55.120Z,1023
2018-05-27T01:16:04.277Z,1022.94
2018-05-27T01:17:13.418Z,1022.87
2018-05-27T01:18:22.288Z,1022.89
2018-05-27T01:19:31.425Z,1022.91
2018-05-27T01:20:40.291Z,1022.85
2018-05-27T01:21:49.156Z,1022.89
2018-05-27T01:22:58.021Z,1022.87
2018-05-27T01:24:06.885Z,1022.88
2018-05-27T01:25:15.746Z,1022.84
2018-05-27T01:26:24.660Z,1022.92
2018-05-27T01:27:33.523Z,1022.93
2018-05-27T01:28:42.386Z,1022.87
2018-05-27T01:29:51.251Z,1022.87
2018-05-27T01:31:00.113Z,1022.91
2018-05-27T01:32:09.257Z,1022.88
2018-05-27T01:33:18.400Z,1022.9
2018-05-27T01:34:27.260Z,1022.86
2018-05-27T01:35:36.123Z,1022.9
2018-05-27T01:36:44.983Z,1022.93
2018-05-27T01:37:53.848Z,1022.96
2018-05-27T01:39:02.985Z,1022.97
2018-05-27T01:40:12.135Z,1022.96
2018-05-27T01:41:21.275Z,1022.94
2018-05-27T01:42:30.140Z,1022.96
2018-05-27T01:43:38.999Z,1022.94
2018-05-27T01:44:47.862Z,1022.92
2018-05-27T01:45:56.723Z,1022.92
2018-05-27T01:47:05.587Z,1022.91
2018-05-27T01:48:14.451Z,1022.95
2018-05-27T01:49:23.313Z,1022.93
2018-05-27T01:50:32.180Z,1022.96
2018-05-27T01:51:41.043Z,1022.92
2018-05-27T01:52:49.906Z,1022.97
2018-05-27T01:53:59.329Z,1022.95
2018-05-27T01:55:08.477Z,1022.96
2018-05-27T01:56:17.340Z,1022.94
2018-05-27T01:57:26.482Z,1022.9
2018-05-27T01:58:35.346Z,1022.93
2018-05-27T01:59:44.208Z,1022.89
2018-05-27T02:00:53.123Z,1022.92
2018-05-27T02:02:02.264Z,1022.92
2018-05-27T02:03:11.126Z,1022.91
2018-05-27T02:04:19.990Z,1022.9
2018-05-27T02:05:29.132Z,1022.85
2018-05-27T02:06:37.994Z,1022.88
2018-05-27T02:07:46.857Z,1022.86
2018-05-27T02:08:55.718Z,1022.89
2018-05-27T02:10:04.582Z,1022.8
2018-05-27T02:11:13.444Z,1022.8
2018-05-27T02:12:22.637Z,1022.83
2018-05-27T02:13:31.776Z,1022.81
2018-05-27T02:14:40.639Z,1022.8
2018-05-27T02:15:49.781Z,1022.78
2018-05-27T02:16:58.645Z,1022.82
2018-05-27T02:18:07.557Z,1022.78
2018-05-27T02:19:16.418Z,1022.81
2018-05-27T02:20:25.569Z,1022.8
2018-05-27T02:21:34.429Z,1022.8
2018-05-27T02:22:43.291Z,1022.79
2018-05-27T02:23:52.154Z,1022.8
2018-05-27T02:25:01.017Z,1022.79
2018-05-27T02:26:09.886Z,1022.8
2018-05-27T02:27:19.075Z,1022.76
2018-05-27T02:28:27.940Z,1022.75
2018-05-27T02:29:36.802Z,1022.78
2018-05-27T02:30:45.942Z,1022.76
2018-05-27T02:31:55.086Z,1022.74
2018-05-27T02:33:04.555Z,1022.75
2018-05-27T02:34:13.925Z,1022.73
2018-05-27T02:35:22.790Z,1022.69
2018-05-27T02:36:31.933Z,1022.74
2018-05-27T02:37:41.077Z,1022.68
2018-05-27T02:38:50.222Z,1022.68
2018-05-27T02:39:59.381Z,1022.68
2018-05-27T02:41:08.539Z,1022.69
2018-05-27T02:42:17.681Z,1022.66
2018-05-27T02:43:26.543Z,1022.68
2018-05-27T02:44:35.408Z,1022.69
2018-05-27T02:45:44.268Z,1022.71
2018-05-27T02:46:53.141Z,1022.68
2018-05-27T02:48:02.562Z,1022.64
2018-05-27T02:49:11.980Z,1022.64
2018-05-27T02:50:21.119Z,1022.63
2018-05-27T02:51:30.461Z,1022.63
2018-05-27T02:52:39.378Z,1022.62
2018-05-27T02:53:48.244Z,1022.61
2018-05-27T02:54:57.102Z,1022.64
2018-05-27T02:56:05.971Z,1022.58
2018-05-27T02:57:15.109Z,1022.6
2018-05-27T02:58:24.253Z,1022.65
2018-05-27T02:59:33.396Z,1022.61
2018-05-27T03:00:42.547Z,1022.66
2018-05-27T03:01:52.049Z,1022.62
2018-05-27T03:03:01.467Z,1022.61
2018-05-27T03:04:10.631Z,1022.62
2018-05-27T03:05:19.494Z,1022.62
2018-05-27T03:06:28.654Z,1022.6
2018-05-27T03:07:37.806Z,1022.56
2018-05-27T03:08:46.943Z,1022.64
2018-05-27T03:09:55.859Z,1022.56
2018-05-27T03:11:05.286Z,1022.62
2018-05-27T03:12:14.428Z,1022.62
2018-05-27T03:13:23.293Z,1022.6
2018-05-27T03:14:32.432Z,1022.64
2018-05-27T03:15:41.299Z,1022.57
2018-05-27T03:16:50.162Z,1022.6
2018-05-27T03:17:59.322Z,1022.52
2018-05-27T03:19:08.502Z,1022.53
2018-05-27T03:20:17.368Z,1022.55
2018-05-27T03:21:26.224Z,1022.48
2018-05-27T03:22:35.364Z,1022.49
2018-05-27T03:23:44.554Z,1022.51
2018-05-27T03:24:53.415Z,1022.51
2018-05-27T03:26:02.279Z,1022.51
2018-05-27T03:27:11.193Z,1022.52
2018-05-27T03:28:20.054Z,1022.47
2018-05-27T03:29:29.202Z,1022.43
2018-05-27T03:30:38.061Z,1022.43
2018-05-27T03:31:47.221Z,1022.4
2018-05-27T03:32:56.922Z,1022.44
2018-05-27T03:34:05.778Z,1022.44
2018-05-27T03:35:14.640Z,1022.49
2018-05-27T03:36:23.505Z,1022.5
2018-05-27T03:37:32.645Z,1022.54
2018-05-27T03:38:41.511Z,1022.54
2018-05-27T03:39:50.372Z,1022.57
2018-05-27T03:40:59.244Z,1022.58
2018-05-27T03:42:08.106Z,1022.57
2018-05-27T03:43:16.968Z,1022.6
2018-05-27T03:44:26.161Z,1022.63
2018-05-27T03:45:35.022Z,1022.62
2018-05-27T03:46:43.886Z,1022.59
2018-05-27T03:47:52.748Z,1022.65
2018-05-27T03:49:01.904Z,1022.68
2018-05-27T03:50:10.755Z,1022.68
2018-05-27T03:51:19.622Z,1022.7
2018-05-27T03:52:28.485Z,1022.7
2018-05-27T03:53:37.346Z,1022.7
2018-05-27T03:54:46.208Z,1022.68
2018-05-27T03:55:55.071Z,1022.64
2018-05-27T03:57:04.210Z,1022.68
2018-05-27T03:58:13.072Z,1022.64
2018-05-27T03:59:21.936Z,1022.65
2018-05-27T04:00:30.796Z,1022.62
2018-05-27T04:01:39.713Z,1022.61
2018-05-27T04:02:48.577Z,1022.6
2018-05-27T04:03:57.725Z,1022.63
2018-05-27T04:05:06.879Z,1022.63
2018-05-27T04:06:16.023Z,1022.62
2018-05-27T04:07:25.168Z,1022.63
2018-05-27T04:08:34.589Z,1022.63
2018-05-27T04:09:43.731Z,1022.64
2018-05-27T04:10:52.595Z,1022.66
2018-05-27T04:12:01.457Z,1022.67
2018-05-27T04:13:10.356Z,1022.68
2018-05-27T04:14:19.177Z,1022.7
2018-05-27T04:15:28.048Z,1022.69
2018-05-27T04:16:37.185Z,1022.66
2018-05-27T04:17:46.048Z,1022.68
2018-05-27T04:18:54.962Z,1022.67
2018-05-27T04:20:03.824Z,1022.66
2018-05-27T04:21:12.685Z,1022.69
2018-05-27T04:22:21.549Z,1022.69
2018-05-27T04:23:30.511Z,1022.66
2018-05-27T04:24:39.371Z,1022.66
2018-05-27T04:25:48.511Z,1022.65
2018-05-27T04:26:57.372Z,1022.61
2018-05-27T04:28:06.236Z,1022.61
2018-05-27T04:29:15.104Z,1022.59
2018-05-27T04:30:23.968Z,1022.61
2018-05-27T04:31:33.389Z,1022.6
2018-05-27T04:32:42.255Z,1022.55
2018-05-27T04:33:51.394Z,1022.54
2018-05-27T04:35:00.257Z,1022.61
2018-05-27T04:36:09.167Z,1022.59
2018-05-27T04:37:18.028Z,1022.61
2018-05-27T04:38:26.891Z,1022.6
2018-05-27T04:39:35.753Z,1022.57
2018-05-27T04:40:44.612Z,1022.56
2018-05-27T04:41:53.476Z,1022.59
2018-05-27T04:43:02.892Z,1022.56
2018-05-27T04:44:11.754Z,1022.56
2018-05-27T04:45:20.618Z,1022.52
2018-05-27T04:46:29.487Z,1022.54
2018-05-27T04:47:38.342Z,1022.56
2018-05-27T04:48:47.206Z,1022.56
2018-05-27T04:49:56.067Z,1022.54
2018-05-27T04:51:04.929Z,1022.56
2018-05-27T04:52:13.790Z,1022.55
2018-05-27T04:53:22.653Z,1022.57
2018-05-27T04:54:31.515Z,1022.57
2018-05-27T04:55:40.399Z,1022.54
2018-05-27T04:56:49.259Z,1022.54
2018-05-27T04:57:58.128Z,1022.46
2018-05-27T04:59:07.269Z,1022.52
2018-05-27T05:00:16.130Z,1022.54
2018-05-27T05:01:24.989Z,1022.52
2018-05-27T05:02:33.853Z,1022.56
2018-05-27T05:03:42.716Z,1022.57
2018-05-27T05:04:52.203Z,1022.57
2018-05-27T05:06:01.066Z,1022.58
2018-05-27T05:07:09.927Z,1022.51
2018-05-27T05:08:18.790Z,1022.54
2018-05-27T05:09:27.658Z,1022.53
2018-05-27T05:10:36.874Z,1022.48
2018-05-27T05:11:45.737Z,1022.48
2018-05-27T05:12:54.886Z,1022.51
2018-05-27T05:14:03.755Z,1022.47
2018-05-27T05:15:12.897Z,1022.48
2018-05-27T05:16:21.758Z,1022.47
2018-05-27T05:17:30.621Z,1022.45
2018-05-27T05:18:40.038Z,1022.43
2018-05-27T05:19:48.901Z,1022.43
2018-05-27T05:20:57.765Z,1022.36
2018-05-27T05:22:06.645Z,1022.32
2018-05-27T05:23:16.107Z,1022.4
2018-05-27T05:24:24.997Z,1022.44
2018-05-27T05:25:33.833Z,1022.45
2018-05-27T05:26:42.702Z,1022.48
2018-05-27T05:27:51.891Z,1022.48
2018-05-27T05:29:00.755Z,1022.48
2018-05-27T05:30:09.613Z,1022.51
2018-05-27T05:31:18.474Z,1022.47
2018-05-27T05:32:27.338Z,1022.49
2018-05-27T05:33:36.205Z,1022.45
2018-05-27T05:34:45.347Z,1022.47
2018-05-27T05:35:54.502Z,1022.44
2018-05-27T05:37:03.641Z,1022.44
2018-05-27T05:38:12.782Z,1022.46
2018-05-27T05:39:21.646Z,1022.46
2018-05-27T05:40:30.505Z,1022.49
2018-05-27T05:41:39.651Z,1022.5
2018-05-27T05:42:48.512Z,1022.45
2018-05-27T05:43:57.658Z,1022.42
2018-05-27T05:45:06.524Z,1022.4
2018-05-27T05:46:15.391Z,1022.4
2018-05-27T05:47:24.259Z,1022.41
2018-05-27T05:48:33.123Z,1022.43
2018-05-27T05:49:41.990Z,1022.38
2018-05-27T05:50:51.133Z,1022.39
2018-05-27T05:52:00.279Z,1022.42
2018-05-27T05:53:09.141Z,1022.44
2018-05-27T05:54:18.002Z,1022.45
2018-05-27T05:55:26.867Z,1022.4
2018-05-27T05:56:35.731Z,1022.45
2018-05-27T05:57:44.594Z,1022.44
2018-05-27T05:58:53.737Z,1022.42
2018-05-27T06:00:02.879Z,1022.45
2018-05-27T06:01:12.059Z,1022.45
2018-05-27T06:02:21.180Z,1022.48
2018-05-27T06:03:30.044Z,1022.49
2018-05-27T06:04:38.910Z,1022.45
2018-05-27T06:05:47.771Z,1022.51
2018-05-27T06:06:56.633Z,1022.47
2018-05-27T06:08:05.495Z,1022.51
2018-05-27T06:09:14.359Z,1022.45
2018-05-27T06:10:23.226Z,1022.46
2018-05-27T06:11:32.089Z,1022.5
2018-05-27T06:12:41.508Z,1022.48
2018-05-27T06:13:50.651Z,1022.48
2018-05-27T06:14:59.794Z,1022.41
2018-05-27T06:16:08.658Z,1022.44
2018-05-27T06:17:17.519Z,1022.53
2018-05-27T06:18:26.659Z,1022.49
2018-05-27T06:19:35.675Z,1022.5
2018-05-27T06:20:44.538Z,1022.47
2018-05-27T06:21:53.400Z,1022.52
2018-05-27T06:23:02.264Z,1022.51
2018-05-27T06:24:11.125Z,1022.47
2018-05-27T06:25:20.004Z,1022.47
2018-05-27T06:26:28.872Z,1022.49
2018-05-27T06:27:38.296Z,1022.41
2018-05-27T06:28:47.157Z,1022.53
2018-05-27T06:29:56.304Z,1022.53
2018-05-27T06:31:05.168Z,1022.57
2018-05-27T06:32:14.030Z,1022.55
2018-05-27T06:33:22.894Z,1022.61
2018-05-27T06:34:31.758Z,1022.58
2018-05-27T06:35:40.681Z,1022.56
2018-05-27T06:36:49.552Z,1022.58
2018-05-27T06:37:58.421Z,1022.58
2018-05-27T06:39:07.281Z,1022.6
2018-05-27T06:40:16.146Z,1022.63
2018-05-27T06:41:25.008Z,1022.66
2018-05-27T06:42:33.872Z,1022.65
2018-05-27T06:43:42.739Z,1022.66
2018-05-27T06:44:51.606Z,1022.68
2018-05-27T06:46:00.469Z,1022.64
2018-05-27T06:47:09.616Z,1022.63
2018-05-27T06:48:18.480Z,1022.68
2018-05-27T06:49:27.625Z,1022.68
2018-05-27T06:50:36.491Z,1022.71
2018-05-27T06:51:45.354Z,1022.74
2018-05-27T06:52:54.220Z,1022.73
2018-05-27T06:54:03.085Z,1022.73
2018-05-27T06:55:12.223Z,1022.68
2018-05-27T06:56:21.087Z,1022.71
2018-05-27T06:57:30.229Z,1022.71
2018-05-27T06:58:39.091Z,1022.71
2018-05-27T06:59:47.959Z,1022.69
2018-05-27T07:00:56.819Z,1022.67
2018-05-27T07:02:05.963Z,1022.68
2018-05-27T07:03:14.820Z,1022.65
2018-05-27T07:04:23.855Z,1022.62
2018-05-27T07:05:33.907Z,1022.63
2018-05-27T07:06:43.051Z,1022.66
2018-05-27T07:07:51.916Z,1022.7
2018-05-27T07:09:00.781Z,1022.71
2018-05-27T07:10:09.928Z,1022.72
2018-05-27T07:11:19.091Z,1022.71
2018-05-27T07:12:27.953Z,1022.75
2018-05-27T07:13:36.819Z,1022.71
2018-05-27T07:14:45.965Z,1022.72
2018-05-27T07:15:54.831Z,1022.76
2018-05-27T07:17:03.754Z,1022.72
2018-05-27T07:18:12.893Z,1022.79
2018-05-27T07:19:22.038Z,1022.75
2018-05-27T07:20:30.902Z,1022.76
2018-05-27T07:21:39.765Z,1022.8
2018-05-27T07:22:48.640Z,1022.75
2018-05-27T07:23:57.786Z,1022.73
2018-05-27T07:25:06.649Z,1022.75
2018-05-27T07:26:15.517Z,1022.67
2018-05-27T07:27:24.380Z,1022.64
2018-05-27T07:28:33.245Z,1022.66
2018-05-27T07:29:42.391Z,1022.68
2018-05-27T07:30:51.252Z,1022.69
2018-05-27T07:32:00.162Z,1022.64
2018-05-27T07:33:09.334Z,1022.62
2018-05-27T07:34:18.196Z,1022.62
2018-05-27T07:35:27.062Z,1022.63
2018-05-27T07:36:35.926Z,1022.6
2018-05-27T07:37:45.071Z,1022.61
2018-05-27T07:38:53.936Z,1022.57
2018-05-27T07:40:02.802Z,1022.55
2018-05-27T07:41:11.951Z,1022.57
2018-05-27T07:42:21.376Z,1022.51
2018-05-27T07:43:30.239Z,1022.52
2018-05-27T07:44:39.668Z,1022.53
2018-05-27T07:45:48.531Z,1022.49
2018-05-27T07:46:57.396Z,1022.52
2018-05-27T07:48:06.260Z,1022.51
2018-05-27T07:49:15.412Z,1022.48
2018-05-27T07:50:24.277Z,1022.47
2018-05-27T07:51:33.144Z,1022.48
2018-05-27T07:52:42.330Z,1022.46
2018-05-27T07:53:51.194Z,1022.47
2018-05-27T07:55:00.061Z,1022.47
2018-05-27T07:56:08.930Z,1022.49
2018-05-27T07:57:18.075Z,1022.46
2018-05-27T07:58:27.305Z,1022.52
2018-05-27T07:59:36.600Z,1022.49
2018-05-27T08:00:45.465Z,1022.45
2018-05-27T08:01:54.330Z,1022.47
2018-05-27T08:03:03.246Z,1022.47
2018-05-27T08:04:12.393Z,1022.46
2018-05-27T08:05:21.259Z,1022.48
2018-05-27T08:06:30.124Z,1022.45
2018-05-27T08:07:38.988Z,1022.46
2018-05-27T08:08:47.855Z,1022.51
2018-05-27T08:09:56.722Z,1022.51
2018-05-27T08:11:05.870Z,1022.5
2018-05-27T08:12:14.736Z,1022.55
2018-05-27T08:13:23.600Z,1022.53
2018-05-27T08:14:32.467Z,1022.49
2018-05-27T08:15:41.331Z,1022.5
2018-05-27T08:16:50.478Z,1022.54
2018-05-27T08:17:59.344Z,1022.49
2018-05-27T08:19:08.767Z,1022.56
2018-05-27T08:20:17.684Z,1022.56
2018-05-27T08:21:26.565Z,1022.57
2018-05-27T08:22:35.632Z,1022.52
2018-05-27T08:23:44.790Z,1022.57
2018-05-27T08:24:53.663Z,1022.56
2018-05-27T08:26:02.880Z,1022.54
2018-05-27T08:27:11.747Z,1022.52
2018-05-27T08:28:20.608Z,1022.49
2018-05-27T08:29:29.477Z,1022.52
2018-05-27T08:30:38.337Z,1022.52
2018-05-27T08:31:47.210Z,1022.47
2018-05-27T08:32:56.358Z,1022.45
2018-05-27T08:34:05.218Z,1022.5
2018-05-27T08:35:14.088Z,1022.51
2018-05-27T08:36:22.958Z,1022.54
2018-05-27T08:37:31.823Z,1022.51
2018-05-27T08:38:40.972Z,1022.53
2018-05-27T08:39:50.125Z,1022.54
2018-05-27T08:40:59.265Z,1022.52
2018-05-27T08:42:08.131Z,1022.45
2018-05-27T08:43:16.998Z,1022.54
2018-05-27T08:44:25.867Z,1022.54
2018-05-27T08:45:35.009Z,1022.48
2018-05-27T08:46:44.153Z,1022.45
2018-05-27T08:47:53.299Z,1022.45
2018-05-27T08:49:02.498Z,1022.5
2018-05-27T08:50:11.324Z,1022.47
2018-05-27T08:51:20.183Z,1022.41
2018-05-27T08:52:29.052Z,1022.38
2018-05-27T08:53:37.923Z,1022.42
2018-05-27T08:54:46.834Z,1022.36
2018-05-27T08:55:55.705Z,1022.32
2018-05-27T08:57:04.569Z,1022.38
2018-05-27T08:58:13.441Z,1022.36
2018-05-27T08:59:22.307Z,1022.34
2018-05-27T09:00:31.216Z,1022.35
2018-05-27T09:01:40.044Z,1022.38
2018-05-27T09:02:48.913Z,1022.4
2018-05-27T09:03:57.780Z,1022.37
2018-05-27T09:05:06.646Z,1022.32
2018-05-27T09:06:15.512Z,1022.34
2018-05-27T09:07:24.933Z,1022.34
2018-05-27T09:08:33.798Z,1022.34
2018-05-27T09:09:42.664Z,1022.32
2018-05-27T09:10:51.529Z,1022.3
2018-05-27T09:12:00.395Z,1022.29
2018-05-27T09:13:09.260Z,1022.24
2018-05-27T09:14:18.128Z,1022.32
2018-05-27T09:15:27.048Z,1022.28
2018-05-27T09:16:35.866Z,1022.31
2018-05-27T09:17:45.008Z,1022.31
2018-05-27T09:18:53.872Z,1022.3
2018-05-27T09:20:02.741Z,1022.3
2018-05-27T09:21:11.891Z,1022.22
2018-05-27T09:22:20.754Z,1022.3
2018-05-27T09:23:29.623Z,1022.24
2018-05-27T09:24:39.058Z,1022.24
2018-05-27T09:25:47.926Z,1022.19
2018-05-27T09:26:56.792Z,1022.19
2018-05-27T09:28:05.661Z,1022.24
2018-05-27T09:29:14.863Z,1022.25
2018-05-27T09:30:24.008Z,1022.22
2018-05-27T09:31:32.874Z,1022.18
2018-05-27T09:32:42.298Z,1022.17
2018-05-27T09:33:51.447Z,1022.15
2018-05-27T09:35:00.314Z,1022.22
2018-05-27T09:36:09.186Z,1022.18
2018-05-27T09:37:18.329Z,1022.15
2018-05-27T09:38:27.197Z,1022.15
2018-05-27T09:39:36.064Z,1022.15
2018-05-27T09:40:45.492Z,1022.12
2018-05-27T09:41:54.371Z,1022.15
2018-05-27T09:43:03.237Z,1022.12
2018-05-27T09:44:12.107Z,1022.12
2018-05-27T09:45:21.003Z,1022.1
2018-05-27T09:46:30.253Z,1022.08
2018-05-27T09:47:39.112Z,1022.07
2018-05-27T09:48:48.262Z,1022.06
2018-05-27T09:49:57.410Z,1022.11
2018-05-27T09:51:06.628Z,1022.04
2018-05-27T09:52:15.785Z,1022.03
2018-05-27T09:53:24.653Z,1022.02
2018-05-27T09:54:33.525Z,1021.94
2018-05-27T09:55:42.392Z,1021.93
2018-05-27T09:56:51.544Z,1021.93
2018-05-27T09:58:00.480Z,1021.96
2018-05-27T09:59:09.297Z,1021.9
2018-05-27T10:00:18.177Z,1021.86
2018-05-27T10:01:27.092Z,1021.83
2018-05-27T10:02:36.247Z,1021.87
2018-05-27T10:03:45.159Z,1021.84
2018-05-27T10:04:54.027Z,1021.89
2018-05-27T10:06:03.172Z,1021.86
2018-05-27T10:07:12.039Z,1021.9
2018-05-27T10:08:20.910Z,1021.89
2018-05-27T10:09:29.785Z,1021.88
2018-05-27T10:10:38.936Z,1021.88
2018-05-27T10:11:47.818Z,1021.89
2018-05-27T10:12:57.026Z,1021.84
2018-05-27T10:14:05.894Z,1021.85
2018-05-27T10:15:15.048Z,1021.85
2018-05-27T10:16:23.915Z,1021.84
2018-05-27T10:17:33.174Z,1021.87
2018-05-27T10:18:42.039Z,1021.89
2018-05-27T10:19:51.192Z,1021.82
2018-05-27T10:21:00.117Z,1021.82
2018-05-27T10:22:09.269Z,1021.81
2018-05-27T10:23:18.134Z,1021.84
2018-05-27T10:24:27.001Z,1021.83
2018-05-27T10:25:35.868Z,1021.85
2018-05-27T10:26:44.735Z,1021.84
2018-05-27T10:27:53.880Z,1021.84
2018-05-27T10:29:03.300Z,1021.87
2018-05-27T10:30:12.170Z,1021.84
2018-05-27T10:31:21.039Z,1021.81
2018-05-27T10:32:29.905Z,1021.79
2018-05-27T10:33:38.771Z,1021.75
2018-05-27T10:34:47.640Z,1021.81
2018-05-27T10:35:56.508Z,1021.73
2018-05-27T10:37:05.651Z,1021.73
2018-05-27T10:38:14.619Z,1021.75
2018-05-27T10:39:23.487Z,1021.72
2018-05-27T10:40:32.643Z,1021.68
2018-05-27T10:41:41.509Z,1021.75
2018-05-27T10:42:50.379Z,1021.74
2018-05-27T10:43:59.251Z,1021.72
2018-05-27T10:45:08.125Z,1021.65
2018-05-27T10:46:17.553Z,1021.65
2018-05-27T10:47:26.434Z,1021.63
2018-05-27T10:48:35.848Z,1021.67
2018-05-27T10:49:44.715Z,1021.65
2018-05-27T10:50:53.588Z,1021.61
2018-05-27T10:52:02.460Z,1021.6
2018-05-27T10:53:11.669Z,1021.54
2018-05-27T10:54:20.822Z,1021.57
2018-05-27T10:55:29.688Z,1021.57
2018-05-27T10:56:38.561Z,1021.57
2018-05-27T10:57:47.421Z,1021.55
2018-05-27T10:58:56.290Z,1021.54
2018-05-27T11:00:05.434Z,1021.51
2018-05-27T11:01:14.321Z,1021.51
2018-05-27T11:02:23.251Z,1021.45
2018-05-27T11:03:32.392Z,1021.5
2018-05-27T11:04:41.261Z,1021.47
2018-05-27T11:05:50.231Z,1021.48
2018-05-27T11:06:59.147Z,1021.42
2018-05-27T11:08:08.160Z,1021.42
2018-05-27T11:09:17.045Z,1021.39
2018-05-27T11:10:26.195Z,1021.38
2018-05-27T11:11:35.339Z,1021.38
2018-05-27T11:12:44.259Z,1021.35
2018-05-27T11:13:53.130Z,1021.29
2018-05-27T11:15:02.281Z,1021.3
2018-05-27T11:16:11.142Z,1021.28
2018-05-27T11:17:20.291Z,1021.24
2018-05-27T11:18:29.160Z,1021.26
2018-05-27T11:19:38.027Z,1021.23
2018-05-27T11:20:46.925Z,1021.22
2018-05-27T11:21:56.051Z,1021.17
2018-05-27T11:23:04.918Z,1021.2
2018-05-27T11:24:13.789Z,1021.21
2018-05-27T11:25:22.656Z,1021.15
2018-05-27T11:26:31.526Z,1021.12
2018-05-27T11:27:40.396Z,1021.1
2018-05-27T11:28:49.265Z,1021.12
2018-05-27T11:29:58.248Z,1021.05
2018-05-27T11:31:07.056Z,1021.05
2018-05-27T11:32:15.932Z,1021.06
2018-05-27T11:33:25.356Z,1021.03
2018-05-27T11:34:34.223Z,1021
2018-05-27T11:35:43.094Z,1020.97
2018-05-27T11:36:52.022Z,1021
2018-05-27T11:38:00.839Z,1021.01
2018-05-27T11:39:09.710Z,1020.99
2018-05-27T11:40:18.853Z,1020.98
2018-05-27T11:41:27.724Z,1020.94
2018-05-27T11:42:36.594Z,1020.93
2018-05-27T11:43:45.467Z,1020.93
2018-05-27T11:44:54.338Z,1020.95
2018-05-27T11:46:03.486Z,1020.89
2018-05-27T11:47:12.403Z,1020.89
2018-05-27T11:48:21.278Z,1020.85
2018-05-27T11:49:30.145Z,1020.9
2018-05-27T11:50:39.015Z,1020.93
2018-05-27T11:51:48.164Z,1020.94
2018-05-27T11:52:57.037Z,1020.9
2018-05-27T11:54:05.909Z,1020.91
2018-05-27T11:55:15.077Z,1020.87
2018-05-27T11:56:23.945Z,1020.86
2018-05-27T11:57:32.815Z,1020.81
2018-05-27T11:58:41.686Z,1020.88
2018-05-27T11:59:50.556Z,1020.86
2018-05-27T12:00:59.436Z,1020.83
2018-05-27T12:02:08.347Z,1020.82
2018-05-27T12:03:17.175Z,1020.71
2018-05-27T12:04:26.334Z,1020.72
2018-05-27T12:05:35.494Z,1020.71
2018-05-27T12:06:44.650Z,1020.7
2018-05-27T12:07:54.080Z,1020.69
2018-05-27T12:09:03.042Z,1020.69
2018-05-27T12:10:13.506Z,1020.7
2018-05-27T12:11:22.662Z,1020.65
2018-05-27T12:12:31.818Z,1020.73
2018-05-27T12:13:40.970Z,1020.67
2018-05-27T12:14:49.844Z,1020.65
2018-05-27T12:15:58.732Z,1020.59
2018-05-27T12:17:07.608Z,1020.56
2018-05-27T12:18:16.483Z,1020.51
2018-05-27T12:19:25.645Z,1020.59
2018-05-27T12:20:34.521Z,1020.49
2018-05-27T12:21:43.399Z,1020.49
2018-05-27T12:22:52.276Z,1020.49
2018-05-27T12:24:01.434Z,1020.43
2018-05-27T12:25:10.619Z,1020.47
2018-05-27T12:26:19.498Z,1020.51
2018-05-27T12:27:28.373Z,1020.48
2018-05-27T12:28:37.263Z,1020.44
2018-05-27T12:29:46.193Z,1020.44
2018-05-27T12:30:55.394Z,1020.44
2018-05-27T12:32:04.271Z,1020.39
2018-05-27T12:33:13.148Z,1020.4
2018-05-27T12:34:22.304Z,1020.42
2018-05-27T12:35:31.235Z,1020.4
2018-05-27T12:36:40.122Z,1020.41
2018-05-27T12:37:49.380Z,1020.42
2018-05-27T12:38:58.752Z,1020.41
2018-05-27T12:40:07.643Z,1020.42
2018-05-27T12:41:16.521Z,1020.44
2018-05-27T12:42:25.402Z,1020.39
2018-05-27T12:43:34.287Z,1020.36
2018-05-27T12:44:43.168Z,1020.32
2018-05-27T12:45:52.041Z,1020.35
2018-05-27T12:47:00.922Z,1020.3
2018-05-27T12:48:10.081Z,1020.32
2018-05-27T12:49:18.961Z,1020.31
2018-05-27T12:50:27.841Z,1020.31
2018-05-27T12:51:36.723Z,1020.35
2018-05-27T12:52:45.602Z,1020.36
2018-05-27T12:53:54.483Z,1020.37
2018-05-27T12:55:03.370Z,1020.33
2018-05-27T12:56:12.254Z,1020.36
2018-05-27T12:57:21.409Z,1020.32
2018-05-27T12:58:30.569Z,1020.34
2018-05-27T12:59:39.738Z,1020.33
2018-05-27T13:00:48.898Z,1020.4
2018-05-27T13:01:58.060Z,1020.31
2018-05-27T13:03:07.220Z,1020.33
2018-05-27T13:04:16.102Z,1020.33
2018-05-27T13:05:24.987Z,1020.34
2018-05-27T13:06:33.877Z,1020.37
2018-05-27T13:07:42.751Z,1020.29
2018-05-27T13:08:51.629Z,1020.27
2018-05-27T13:10:00.510Z,1020.26
2018-05-27T13:11:09.398Z,1020.24
2018-05-27T13:12:18.281Z,1020.24
2018-05-27T13:13:27.455Z,1020.22
2018-05-27T13:14:36.336Z,1020.22
2018-05-27T13:15:45.221Z,1020.16
2018-05-27T13:16:54.634Z,1020.18
2018-05-27T13:18:04.648Z,1020.17
2018-05-27T13:19:13.810Z,1020.16
2018-05-27T13:20:22.692Z,1020.13
2018-05-27T13:21:31.861Z,1020.14
2018-05-27T13:22:40.745Z,1020.13
2018-05-27T13:23:49.641Z,1020.11
2018-05-27T13:24:58.509Z,1020.11
2018-05-27T13:26:07.393Z,1020.16
2018-05-27T13:27:16.292Z,1020.18
2018-05-27T13:28:25.158Z,1020.1
2018-05-27T13:29:34.047Z,1020.04
2018-05-27T13:30:43.256Z,1020.11
2018-05-27T13:31:52.137Z,1020.09
2018-05-27T13:33:01.354Z,1020.01
2018-05-27T13:34:10.239Z,1020.06
2018-05-27T13:35:19.123Z,1020.05
2018-05-27T13:36:28.009Z,1020.08
2018-05-27T13:37:36.892Z,1020.06
2018-05-27T13:38:46.050Z,1020.01
2018-05-27T13:39:54.939Z,1020.02
2018-05-27T13:41:03.823Z,1020.02
2018-05-27T13:42:12.708Z,1020.01
2018-05-27T13:43:21.591Z,1020.01
2018-05-27T13:44:30.476Z,1020.01
2018-05-27T13:45:39.371Z,1020.04
2018-05-27T13:46:48.326Z,1020.02
2018-05-27T13:47:57.209Z,1019.97
2018-05-27T13:49:06.092Z,1019.98
2018-05-27T13:50:15.649Z,1020.01
2018-05-27T13:51:24.810Z,1019.98
2018-05-27T13:52:33.693Z,1019.94
2018-05-27T13:53:42.580Z,1019.98
2018-05-27T13:54:51.744Z,1019.97
2018-05-27T13:56:00.627Z,1019.97
2018-05-27T13:57:09.511Z,1020.06